EGLLENFB

Guest
Details From EGLL - London Heathrow
To ENFB - [x] Oslo Fornebu
Flight Number -
Tags Generated
Created
Modified
Stats Distance 629 nm / 1,164 km
Max Altitude 0 ft / 0 m
Waypoints 4
Social Downloads 1
Likes 0
Share VATSIM

Download

Looking for another format? Having issues loading an existing format? Contact us
Advertisement - Login to hide

Notes

Generated

Route

EGLL BELAP QEAST ENFB

ID Type Via Altitude Latitude Longitude Leg Dist Tot Dist Heading (true) Name
O EGLL APT - 0 ft / 0 m 51.46477˚ -0.48695˚ - 0 nm - -
BELAP FIX - 0 ft / 0 m 55.48508˚ 3.99614˚ 289 nm 289 nm 32° / 35° -
QEAST FIX - 0 ft / 0 m 59.71090˚ 10.23655˚ 323 nm 613 nm 36° / 41° -
O ENFB APT - 0 ft / 0 m 59.88837˚ 10.61675˚ 15 nm 628 nm 47° / 47° -

Altitude Profile

Advertisement - Login to hide

Weather


0- 5 10 15 20 25 30 35+ Temperature / ° C

Clouds and Precipitation
Forecast for 2017-12-17 06:00 UTC. Updated an hour ago

Ground ~20,000 ft ~40,000 ft Winds

EGLL

Details ICAO EGLL (LHR)
Name London Heathrow
Region United Kingdom
Timezone Europe/London (UTC+0.0)
Stats Elevation 83 ft / 25 m (AMSL)
Location 51.471218° -0.460978°
Runways 2
Magnetic Variation 0.559° W

METAR

EGLL 170620Z VRB03KT 3500 BR FEW008 SCT012 M00/M01 Q1025

Decode

TAF

TAF TAF EGLL 170459Z 1706/1812 30003KT 3000 BR FEW006 TEMPO 1706/1710 0300 FZFG FG VV/// TEMPO 1710/1712 5000 BKN003 PROB40 TEMPO 1712/1714 7000 RA -RADZ BKN006 BECMG 1714/1717 24010KT 6000 -RADZ BKN008 PROB40 TEMPO 1717/1722 3000 RADZ BKN004 BECMG 1722/1724 32008KT 9999 NSW FEW030

Decode

Departure Runways

ID Width Length Bearing (true) Bearing (mag) Surface Threshold Offset Overrun Length
09L 164 ft / 50 m 12,811 ft / 3,905 m 89.64° 90.20° Asphalt 1,004 ft / 306 m 0 ft / 0 m
09R 164 ft / 50 m 12,019 ft / 3,663 m 89.67° 90.23° Asphalt 1,007 ft / 307 m 0 ft / 0 m
27L 164 ft / 50 m 12,019 ft / 3,663 m 269.71° 270.27° Asphalt 0 ft / 0 m 69 ft / 21 m
27R 164 ft / 50 m 12,811 ft / 3,905 m 269.69° 270.25° Asphalt 0 ft / 0 m 69 ft / 21 m

ENFB

Details ICAO ENFB (FBU)
Name [X] Oslo Fornebu
Region Norway
Timezone Europe/Oslo (UTC+1.0)
Stats Elevation 52 ft / 16 m (AMSL)
Location 59.896160° 10.615832°
Runways 2
Magnetic Variation 3.170° E

METAR

ENFB 170550Z AUTO 20021KT 9999NDV BKN037/// BKN130/// 05/M01 Q1009 W///S4

Decode

TAF

Not found

Destination Runways

ID Width Length Bearing (true) Bearing (mag) Surface Threshold Offset Overrun Length
01 150 ft / 46 m 6,076 ft / 1,852 m 5.47° 2.30° Asphalt 0 ft / 0 m 0 ft / 0 m
06 150 ft / 46 m 8,008 ft / 2,441 m 57.98° 54.81° Asphalt 0 ft / 0 m 0 ft / 0 m
19 150 ft / 46 m 6,076 ft / 1,852 m 185.47° 182.30° Asphalt 0 ft / 0 m 0 ft / 0 m
24 150 ft / 46 m 8,008 ft / 2,441 m 238.02° 234.85° Asphalt 0 ft / 0 m 0 ft / 0 m

Popular Alternatives